Latest Weather Observations for Pallamana

IDS60801

Issued at 6:11 pm CST Monday 22 April 2019 (issued every 10 minutes, with the page automatically refreshed every 10 minutes)

About weather observations | Map of weather stations | Latest weather observations for SA | Other Formats
Station Details ID: 024584 Name: PALLAMANA AERODROME Lat: -35.06 Lon: 139.23 Height: 45.0 m
Data from the previous 72 hours. | See also: Recent months at Pallamana
Date/Time
CST
Temp
°C
App
Temp
°C
Dew
Point
°C
Rel
Hum
%
Delta-T
°C
Wind Press
QNH
hPa
Press
MSL
hPa
Rain since
9am
mm
Dir  Spd
km/h
Gust
km/h
Spd
kts
Gust
kts
22/06:00pm 15.2 11.1 6.0 54 4.4 SSW 17 24 9 13 1027.3 1027.3 0.0
22/05:30pm 15.9 10.8 6.2 52 4.7 SSW 22 32 12 17 1026.7 1026.7 0.0
22/05:00pm 16.9 11.4 6.0 48 5.3 SSW 24 32 13 17 1026.2 1026.2 0.0
22/04:30pm 17.7 12.1 5.5 44 5.9 S 24 32 13 17 1026.0 1026.0 0.0
22/04:00pm 18.2 12.6 5.6 43 6.2 SSW 24 30 13 16 1025.8 1025.8 0.0
22/03:30pm 18.3 13.0 5.2 42 6.3 SSE 22 32 12 17 1025.7 1025.7 0.0
22/03:00pm 18.8 13.9 4.3 38 6.9 SSE 19 28 10 15 1025.6 1025.6 0.0
22/02:30pm 18.6 14.1 4.3 38 6.8 SSE 17 24 9 13 1025.5 1025.5 0.0
22/02:00pm 18.6 13.6 3.7 37 7.0 S 19 30 10 16 1025.7 1025.7 0.0
22/01:30pm 18.6 14.0 3.7 37 7.0 SSE 17 30 9 16 1025.8 1025.8 0.0
22/01:00pm 18.6 13.9 3.0 35 7.2 SSE 17 28 9 15 1026.1 1026.1 0.0
22/12:30pm 18.0 12.8 3.6 38 6.7 SSW 20 30 11 16 1026.3 1026.3 0.0
22/12:00pm 18.3 13.1 3.8 38 6.8 S 20 32 11 17 1026.5 1026.5 0.0
22/11:30am 18.8 14.3 4.3 38 6.9 SSW 17 26 9 14 1026.8 1026.8 0.0
22/11:00am 16.9 13.1 5.7 47 5.4 SSE 15 24 8 13 1027.2 1027.2 0.0
22/10:30am 17.1 14.1 6.2 48 5.3 ESE 11 19 6 10 1027.3 1027.3 0.0
22/10:00am 15.9 13.8 8.1 60 3.9 ESE 9 15 5 8 1027.6 1027.6 0.0
22/09:30am 15.5 14.0 8.6 63 3.5 ESE 6 11 3 6 1027.7 1027.7 0.0
22/09:00am 14.6 13.7 9.1 69 2.8 E 4 9 2 5 1027.3 1027.3 0.4
22/08:30am 13.4 13.2 9.2 76 2.1 CALM 0 0 0 0 1027.1 1027.1 0.4
22/08:00am 11.2 9.8 8.8 85 1.2 SW 6 7 3 4 1026.9 1026.9 0.4
22/07:30am 8.7 8.0 7.0 89 0.8 CALM 0 0 0 0 1026.6 1026.6 0.4
22/07:00am 6.4 5.3 5.0 91 0.6 CALM 0 0 0 0 1026.1 1026.1 0.4
22/06:30am 7.3 6.3 5.7 89 0.7 CALM 0 0 0 0 1025.9 1025.9 0.4
22/06:00am 5.9 3.4 3.8 86 0.9 ESE 6 7 3 4 1025.7 1025.7 0.4
22/05:30am 7.8 5.2 6.3 90 0.7 WSW 9 9 5 5 1025.3 1025.3 0.4
22/05:00am 7.5 6.1 5.7 88 0.8 WSW 2 6 1 3 1025.3 1025.3 0.4
22/04:30am 8.8 6.6 6.4 85 1.1 W 7 9 4 5 1025.0 1025.0 0.4
22/04:00am 8.1 5.8 5.9 86 1.0 SW 7 9 4 5 1024.8 1024.8 0.4
22/03:30am 9.3 7.1 6.3 81 1.4 SSE 7 11 4 6 1024.6 1024.6 0.4
22/03:00am 9.9 8.0 6.9 81 1.4 SW 6 9 3 5 1024.5 1024.5 0.4
22/02:30am 9.8 7.9 6.6 80 1.5 SE 6 7 3 4 1024.8 1024.8 0.4
22/02:00am 10.3 7.5 6.9 79 1.6 S 11 19 6 10 1024.8 1024.8 0.4
22/01:30am 11.1 6.8 6.9 75 2.0 WSW 19 20 10 11 1024.6 1024.6 0.4
22/01:00am 10.7 7.2 7.1 78 1.7 WSW 15 17 8 9 1024.7 1024.7 0.4
22/12:30am 11.4 7.2 7.4 76 1.9 WSW 19 20 10 11 1024.3 1024.3 0.4
22/12:00am 11.8 8.8 7.7 76 2.0 WSW 13 15 7 8 1024.5 1024.5 0.4
 
Date/Time
CST
Temp
°C
App
Temp
°C
Dew
Point
°C
Rel
Hum
%
Delta-T
°C
Wind Press
QNH
hPa
Press
MSL
hPa
Rain since
9am
mm
Dir  Spd
km/h
Gust
km/h
Spd
kts
Gust
kts
21/11:30pm 11.7 8.7 7.8 77 1.9 WSW 13 17 7 9 1024.4 1024.4 0.4
21/11:00pm 11.8 7.7 7.9 77 1.9 WSW 19 20 10 11 1024.1 1024.1 0.4
21/10:30pm 11.0 7.2 7.5 79 1.7 SW 17 20 9 11 1024.0 1024.0 0.4
21/10:00pm 10.8 7.3 7.0 77 1.8 SW 15 15 8 8 1024.2 1024.2 0.4
21/09:30pm 11.8 8.7 7.2 73 2.2 WSW 13 15 7 8 1024.1 1024.1 0.4
21/09:00pm 12.9 9.5 7.8 71 2.5 WSW 15 17 8 9 1023.9 1023.9 0.4
21/08:30pm 13.7 10.4 8.0 68 2.8 WSW 15 17 8 9 1023.7 1023.7 0.4
21/08:00pm 13.7 10.0 8.0 68 2.8 SW 17 20 9 11 1023.7 1023.7 0.4
21/07:30pm 14.2 10.6 8.2 67 3.0 SW 17 20 9 11 1023.6 1023.6 0.4
21/07:00pm 15.0 11.0 8.2 64 3.4 SSW 19 22 10 12 1023.3 1023.3 0.4
21/06:30pm 15.6 10.7 8.5 62 3.6 SSW 24 30 13 16 1022.5 1022.4 0.4
21/06:00pm 16.4 11.3 9.2 62 3.7 SSW 26 32 14 17 1022.2 1022.1 0.4
21/05:30pm 16.8 12.1 9.3 61 3.9 SSW 24 32 13 17 1021.6 1021.5 0.4
21/05:00pm 17.1 13.2 9.4 60 4.0 S 20 28 11 15 1021.5 1021.4 0.4
21/04:30pm 17.5 12.9 9.5 59 4.2 S 24 32 13 17 1020.7 1020.6 0.4
21/04:00pm 18.2 13.7 10.1 59 4.3 S 24 32 13 17 1020.3 1020.2 0.4
21/03:30pm 18.6 14.6 10.6 59 4.3 S 22 30 12 16 1020.3 1020.2 0.4
21/03:00pm 19.1 16.5 9.2 52 5.2 S 13 20 7 11 1020.1 1020.0 0.4
21/02:30pm 19.3 16.2 8.8 50 5.5 S 15 22 8 12 1019.9 1019.8 0.4
21/02:00pm 18.8 15.4 9.3 54 5.0 SSW 17 22 9 12 1020.0 1019.9 0.4
21/01:30pm 19.5 15.8 9.3 51 5.4 SSW 19 28 10 15 1019.5 1019.4 0.4
21/01:00pm 19.1 15.6 10.3 56 4.7 SSW 19 30 10 16 1019.9 1019.8 0.4
21/12:30pm 18.3 16.4 11.7 65 3.6 S 13 20 7 11 1020.2 1020.1 0.4
21/12:00pm 19.0 17.0 10.0 56 4.8 SSW 11 15 6 8 1020.5 1020.4 0.4
21/11:30am 18.1 16.0 9.8 58 4.4 W 11 15 6 8 1020.7 1020.6 0.4
21/11:00am 18.1 15.6 9.8 58 4.4 W 13 20 7 11 1020.5 1020.4 0.4
21/10:30am 17.6 14.7 10.9 65 3.6 W 17 22 9 12 1020.9 1020.8 0.4
21/10:00am 16.3 13.4 11.1 71 2.8 WSW 17 22 9 12 1020.3 1020.2 0.4
21/09:30am 15.9 14.3 11.6 75 2.3 WSW 11 15 6 8 1020.4 1020.3 0.2
21/09:00am 16.6 14.7 10.6 67 3.2 W 11 17 6 9 1020.2 1020.1 0.0
21/08:30am 16.3 13.6 10.2 67 3.2 W 15 20 8 11 1019.4 1019.3 0.0
21/08:00am 16.4 13.1 11.0 70 2.9 W 19 26 10 14 1019.4 1019.3 0.0
21/07:30am 16.3 14.3 12.7 79 2.0 SW 15 19 8 10 1018.5 1018.4 0.0
21/07:00am 16.8 15.7 13.2 79 2.0 SSW 11 15 6 8 1018.3 1018.2 0.0
21/06:30am 16.9 16.2 13.3 79 2.0 SW 9 13 5 7 1018.3 1018.2 0.0
21/06:00am 18.1 16.5 11.7 66 3.5 WSW 11 13 6 7 1017.1 1017.0 0.0
21/05:30am 18.8 16.0 11.3 61 4.1 WSW 17 26 9 14 1016.9 1016.8 0.0
21/05:00am 19.2 17.7 11.8 62 4.1 SW 11 17 6 9 1016.9 1016.8 0.0
21/04:30am 19.4 16.2 11.4 60 4.4 W 19 28 10 15 1016.7 1016.6 0.0
21/04:00am 19.3 17.9 10.8 58 4.6 SW 9 13 5 7 1015.9 1015.8 0.0
21/03:30am 19.4 17.2 10.7 57 4.7 WSW 13 17 7 9 1015.4 1015.3 0.0
21/03:00am 19.8 17.2 10.8 56 4.9 SW 15 19 8 10 1015.4 1015.3 0.0
21/02:30am 20.3 15.7 11.2 56 5.0 WSW 26 39 14 21 1015.1 1015.0 0.0
21/02:00am 20.4 14.5 12.4 60 4.5 W 35 44 19 24 1014.6 1014.5 0.0
21/01:30am 20.5 13.4 13.3 63 4.1 W 43 56 23 30 1014.6 1014.5 0.0
21/01:02am 22.5 15.3 10.7 47 6.5 W 39 57 21 31 1014.0 1013.9 0.0
21/01:00am 23.2 16.0 9.1 40 7.6 W 37 52 20 28 1014.0 1013.9 0.0
21/12:54am 24.2 18.2 6.9 33 9.0 WNW 28 52 15 28 1013.8 1013.7 0.0
21/12:30am 20.9 16.9 2.6 30 8.6 N 13 17 7 9 1012.9 1012.8 0.0
21/12:00am 20.4 15.5 1.7 29 8.6 N 17 20 9 11 1012.7 1012.6 0.0
 
Date/Time
CST
Temp
°C
App
Temp
°C
Dew
Point
°C
Rel
Hum
%
Delta-T
°C
Wind Press
QNH
hPa
Press
MSL
hPa
Rain since
9am
mm
Dir  Spd
km/h
Gust
km/h
Spd
kts
Gust
kts
20/11:30pm 20.0 14.7 1.6 29 8.4 N 19 19 10 10 1012.8 1012.7 0.0
20/11:00pm 20.4 15.8 1.7 29 8.6 NNW 15 17 8 9 1013.4 1013.3 0.0
20/10:30pm 20.3 15.4 1.8 29 8.5 NNW 17 19 9 10 1013.6 1013.5 0.0
20/10:00pm 19.8 15.6 1.6 29 8.3 N 13 15 7 8 1013.6 1013.5 0.0
20/09:30pm 20.6 16.4 1.7 28 8.7 N 13 15 7 8 1013.8 1013.7 0.0
20/09:00pm 22.0 17.8 1.8 26 9.4 N 13 15 7 8 1013.8 1013.7 0.0
20/08:30pm 23.7 18.8 1.9 24 10.3 NNW 17 20 9 11 1014.0 1013.9 0.0
20/08:00pm 24.3 19.7 1.3 22 10.8 NW 15 20 8 11 1013.8 1013.7 0.0
20/07:30pm 25.1 19.9 2.2 22 11.0 N 19 22 10 12 1013.5 1013.4 0.0
20/07:00pm 27.4 20.3 1.1 18 12.6 NNE 28 33 15 18 1013.5 1013.4 0.0
20/06:30pm 27.7 20.9 1.0 17 12.8 NNE 26 30 14 16 1013.4 1013.3 0.0
20/06:00pm 28.2 21.4 0.9 17 13.1 NNE 26 32 14 17 1013.3 1013.2 0.0
20/05:30pm 29.0 21.9 1.5 17 13.4 NNE 28 35 15 19 1013.3 1013.2 0.0
20/05:00pm 30.1 22.0 0.9 15 14.2 N 33 43 18 23 1013.3 1013.2 0.0
20/04:30pm 30.4 21.1 0.4 14 14.5 N 39 48 21 26 1013.4 1013.3 0.0
20/04:00pm 31.2 21.8 0.2 13 15.0 N 39 48 21 26 1013.6 1013.5 0.0
20/03:30pm 30.9 21.6 0.7 14 14.7 N 39 48 21 26 1014.0 1013.9 0.0
20/03:04pm 31.3 22.2 -0.4 13 15.2 N 37 61 20 33 1014.1 1014.0 0.0
20/03:00pm 31.4 22.7 1.9 15 14.7 N 37 54 20 29 1014.2 1014.1 0.0
20/02:56pm 31.3 21.7 1.3 14 14.8 N 41 59 22 32 1014.3 1014.2 0.0
20/02:30pm 32.5 22.3 0.0 12 15.8 N 43 59 23 32 1014.4 1014.3 0.0
20/02:09pm 31.7 22.4 0.6 13 15.2 N 39 57 21 31 1014.7 1014.6 0.0
20/02:00pm 31.5 22.3 1.4 14 14.9 N 39 50 21 27 1014.7 1014.6 0.0
20/01:45pm 31.5 22.3 1.4 14 14.9 N 39 57 21 31 1014.9 1014.8 0.0
20/01:30pm 31.8 21.2 0.8 14 15.2 N 46 57 25 31 1015.0 1014.9 0.0
20/01:04pm 31.9 23.6 2.3 15 14.9 NNE 35 57 19 31 1015.4 1015.3 0.0
20/01:00pm 31.8 23.5 2.1 15 14.9 NNE 35 46 19 25 1015.7 1015.6 0.0
20/12:30pm 32.1 22.6 2.0 14 15.1 N 41 54 22 29 1016.3 1016.2 0.0
20/12:00pm 31.6 21.6 2.0 15 14.8 N 44 57 24 31 1017.0 1016.9 0.0
20/11:30am 31.9 22.9 2.3 15 14.9 NNE 39 52 21 28 1017.4 1017.3 0.0
20/11:00am 30.6 22.3 2.4 16 14.1 NNE 35 46 19 25 1018.0 1017.9 0.0
20/10:30am 29.7 21.9 2.6 17 13.5 NNE 33 41 18 22 1018.6 1018.5 0.0
20/10:00am 27.1 21.1 3.6 22 11.7 NNE 24 30 13 16 1019.2 1019.1 0.0
20/09:30am 24.8 20.2 3.9 25 10.3 NE 17 22 9 12 1019.8 1019.7 0.0
20/09:00am 22.0 17.5 4.4 31 8.6 NNE 17 20 9 11 1020.1 1020.0 0.0
20/08:30am 19.8 14.8 4.4 36 7.4 N 20 26 11 14 1020.0 1019.9 0.0
20/08:00am 17.9 13.2 5.0 42 6.2 N 19 22 10 12 1020.1 1020.0 0.0
20/07:30am 16.1 11.7 4.9 47 5.3 N 17 19 9 10 1019.7 1019.6 0.0
20/07:00am 13.2 9.1 4.5 55 4.0 N 15 19 8 10 1019.5 1019.4 0.0
20/06:30am 14.4 10.0 4.7 52 4.5 NNW 17 19 9 10 1019.3 1019.2 0.0
20/06:00am 14.4 10.4 4.7 52 4.5 NNW 15 19 8 10 1019.3 1019.2 0.0
20/05:30am 14.1 10.0 4.6 52 4.4 N 15 17 8 9 1019.1 1019.0 0.0
20/05:00am 14.8 10.8 4.7 51 4.7 NNW 15 19 8 10 1019.1 1019.0 0.0
20/04:30am 14.7 11.0 4.6 50 4.7 NNW 13 13 7 7 1018.9 1018.8 0.0
20/04:00am 15.4 12.2 5.0 50 4.9 NNW 11 13 6 7 1019.0 1018.9 0.0
20/03:30am 14.8 11.1 4.4 49 4.8 N 13 15 7 8 1018.8 1018.7 0.0
20/03:00am 15.1 11.0 4.6 49 4.9 NNE 15 19 8 10 1019.0 1018.9 0.0
20/02:30am 14.8 11.1 4.4 49 4.8 N 13 15 7 8 1019.2 1019.1 0.0
20/02:00am 15.8 12.5 4.5 47 5.3 NNE 11 13 6 7 1019.4 1019.3 0.0
20/01:30am 16.4 13.9 5.0 47 5.4 N 7 7 4 4 1019.5 1019.4 0.0
20/01:00am 16.9 14.3 4.4 43 5.9 N 7 9 4 5 1019.7 1019.6 0.0
20/12:30am 17.7 14.8 4.7 42 6.2 N 9 11 5 6 1019.8 1019.7 0.0
20/12:00am 17.6 14.9 3.9 40 6.4 N 7 9 4 5 1020.0 1019.9 0.0
 
Date/Time
CST
Temp
°C
App
Temp
°C
Dew
Point
°C
Rel
Hum
%
Delta-T
°C
Wind Press
QNH
hPa
Press
MSL
hPa
Rain since
9am
mm
Dir  Spd
km/h
Gust
km/h
Spd
kts
Gust
kts
19/11:30pm 17.6 13.5 4.2 41 6.3 N 15 17 8 9 1020.2 1020.1 0.0
19/11:00pm 17.9 14.8 3.5 38 6.7 N 9 11 5 6 1020.3 1020.2 0.0
19/10:30pm 18.4 15.4 4.3 39 6.7 N 9 9 5 5 1020.4 1020.3 0.0
19/10:00pm 18.9 16.0 4.5 38 6.9 N 9 9 5 5 1020.5 1020.4 0.0
19/09:30pm 18.6 16.0 4.3 38 6.8 N 7 9 4 5 1020.7 1020.6 0.0
19/09:00pm 20.4 17.5 4.8 36 7.6 NNW 9 11 5 6 1020.6 1020.5 0.0
19/08:30pm 20.9 17.4 3.5 31 8.3 NNW 11 11 6 6 1020.3 1020.2 0.0
19/08:00pm 21.1 17.9 2.8 30 8.6 NNW 9 11 5 6 1020.2 1020.1 0.0
19/07:30pm 22.1 18.9 4.9 32 8.5 N 11 13 6 7 1020.0 1019.9 0.0
19/07:00pm 22.2 19.3 4.7 32 8.6 N 9 11 5 6 1019.9 1019.8 0.0
19/06:30pm 23.4 20.9 4.6 29 9.3 N 7 11 4 6 1019.7 1019.6 0.0

Other formats

Comma delimited format used in spreadsheet applications
http://www.bom.gov.au/fwo/IDS60801/IDS60801.95818.axf

JavaScript Object Notation format (JSON) in row-major order
http://www.bom.gov.au/fwo/IDS60801/IDS60801.95818.json

Data quality

Most of these data are generated automatically and are frequently updated. Quality checks on data are not normally performed. It is possible for incorrect values to appear. Refer to information at About Latest Weather Observations and please check the disclaimer before using these data.